Emporia, KS

5:38 AM CDT on July 23, 2014 (GMT -0500)
Timmerman School Area (KKSEMPOR4) Elev 1214 ft | 38.43 °N, 96.22 °W | Change Station

Current weather conditions updated 6 seconds ago

Clear
Clear
76.1 °F
Feels Like 76 °F
N
5.6
Wind Variable Wind from NE
Gusts 7.4 mph

Today is forecast to be Much Cooler than yesterday.

Today
High -- | Low -- °F
--% Chance of Precip.
Yesterday
High -- | Low -- °F
Precip. -- in
6:19 AM 8:42 PM
Waning Crescent, 11% visible
Pressure 30.07 in
Visibility 10.0 miles
Clouds Clear
Heat Index 76 °F
Dew Point 74 °F
Humidity 92%
Rainfall 0.00 in
Snow Depth Not available.
UV 0 out of 12
Pollen 5.70 out of 12
Air Quality Not available.
Flu Activity Not available.
METAR KEMP 230953Z AUTO 02006KT 10SM CLR 24/23 A3011 RMK AO2 SLP181 T02440228

More Conditions Fewer Conditions

Pressure 30.07 in
Visibility 10.0 miles
Clouds Clear
Heat Index 76 °F
Dew Point 74 °F
Humidity 92%
Rainfall 0.00 in
Snow Depth Not available.
UV 0 out of 12
Pollen 5.70 out of 12
Air Quality Not available.
Flu Activity Not available.
METAR KEMP 230953Z AUTO 02006KT 10SM CLR 24/23 A3011 RMK AO2 SLP181 T02440228

More Conditions Fewer Conditions

10-Day Weather Forecast

Almanac

Astronomy

Jul. 23, 2014 Rise Set
Actual Time 6:19 AM CDT 8:42 PM CDT
Civil Twilight 5:49 AM CDT 9:12 PM CDT
Nautical Twilight 5:11 AM CDT 9:50 PM CDT
Astronomical Twilight 4:30 AM CDT 10:30 PM CDT
Moon 3:38 AM CDT 6:12 PM CDT
Length of Visible Light 15h 23m
Length of Day
14h 23m
Tomorrow will be 1m 36s shorter.
Waning Crescent, 11% of the Moon is Illuminated
Today
Waning Crescent
Jul 26
New
Aug 3
First Quarter
Aug 10
Full
Aug 17
Last Quarter

Today's Extremes

State Highs State Lows

Community

WunderPhotos

Upload Photos

1,736,556 photos uploaded!

Nearby

Snow Depth

Station Depth Elevation
No new snow has been reported.

Earthquake Activity

City Distance Mag. Time & Date
Helena, Oklahoma 161 miles 3.2 8:41 AM CDT
2014-07-18
Caldwell, Kansas 126 miles 3.6 5:40 AM CDT
2014-07-17
Minimum magnitude displayed is 2.5.

Coastal Water Temperatures

Place Temperature
No Stations Reporting

Nearby Weather Stations

Station Location Temp. Heat Index Dew Point Humidity Wind Precip. Elev Updated Type
Timmerman School Area, Emporia, KS 76.1 °F 76 °F 74 °F 92% NE  at  5.6 mph 0.00 in / hr 1214 ft 5:38 AM CDT Rapid Fire
East Emporia Kansas, Emporia, KS 75.7 °F 76 °F 70 °F 84% NW  at  3.2 mph - / hr 1106 ft 5:38 AM CDT Normal
Rural Flint Hills of Emporia, Emporia, KS 75.1 °F 74 °F 72 °F 91% West  at  0.0 mph 0.00 in / hr 1270 ft 5:37 AM CDT Normal
T-K Weather Station West Hartford, Kansa, Hartford, KS 76.6 °F 78 °F 72 °F 85% East  at  2.7 mph - / hr 1129 ft 5:27 AM CDT Normal
RAWS TALLGRASS PRAIRIE KS, Strong City, KS 75 °F 74 °F 72 °F 91% South  at  4 mph 0.00 in / hr 1230 ft 4:30 AM CDT MADIS

Show More Stations Show Fewer Stations